createdAt,value
2023-01-13T00:01:15.972Z,101204.25
2023-01-13T00:03:44.035Z,101205.09
2023-01-13T05:03:28.818Z,101123.88
2023-01-13T05:05:55.731Z,101123.88
2023-01-13T05:08:22.407Z,101121.34
2023-01-13T05:10:49.043Z,101126.56
2023-01-13T05:13:34.788Z,101124.03
2023-01-13T05:16:20.204Z,101123.12
2023-01-13T05:18:47.194Z,101114.81
2023-01-13T05:21:33.769Z,101127.69
2023-01-13T05:24:19.507Z,101122.72
2023-01-13T05:26:46.089Z,101131.50
2023-01-13T05:29:13.093Z,101134.09
2023-01-13T05:31:39.707Z,101124.75
2023-01-13T05:34:06.326Z,101130.66
2023-01-13T05:36:33.329Z,101118.84
2023-01-13T05:38:59.949Z,101131.47
2023-01-13T05:41:45.245Z,101123.75
2023-01-13T05:44:12.236Z,101118.69
2023-01-13T05:46:40.504Z,101119.47
2023-01-13T05:49:07.237Z,101119.25
2023-01-13T05:51:34.136Z,101124.41
2023-01-13T05:54:00.748Z,101120.38
2023-01-13T05:56:27.390Z,101142.50
2023-01-13T05:58:54.395Z,101135.59
2023-01-13T06:01:21.129Z,101144.41
2023-01-13T06:03:48.182Z,101147.09
2023-01-13T06:06:14.847Z,101138.34
2023-01-13T06:08:41.569Z,101147.84
2023-01-13T06:11:08.537Z,101147.78
2023-01-13T06:13:35.264Z,101153.00
2023-01-13T06:16:02.049Z,101142.66
2023-01-13T06:18:29.146Z,101134.19
2023-01-13T06:20:56.672Z,101154.63
2023-01-13T06:23:24.015Z,101145.87
2023-01-13T06:26:01.490Z,101146.72
2023-01-13T06:28:28.158Z,101150.88
2023-01-13T06:31:00.682Z,101141.16
2023-01-13T06:33:35.500Z,101145.34
2023-01-13T06:36:07.582Z,101146.97
2023-01-13T06:38:39.529Z,101142.56
2023-01-13T06:41:07.798Z,101134.16
2023-01-13T06:43:35.667Z,101128.06
2023-01-13T06:46:03.090Z,101137.97
2023-01-13T06:48:35.051Z,101133.03
2023-01-13T06:51:03.853Z,101146.53
2023-01-13T06:53:31.033Z,101140.41
2023-01-13T06:55:57.688Z,101131.91
2023-01-13T06:58:24.756Z,101142.59
2023-01-13T07:00:51.926Z,101140.62
2023-01-13T07:03:19.649Z,101138.75
2023-01-13T07:05:54.776Z,101143.84
2023-01-13T07:08:22.891Z,101119.75
2023-01-13T07:10:49.685Z,101148.75
2023-01-13T07:13:35.025Z,101141.84
2023-01-13T07:16:05.275Z,101150.59
2023-01-13T07:18:33.178Z,101137.06
2023-01-13T07:21:11.985Z,101145.31
2023-01-13T07:23:40.606Z,101130.94
2023-01-13T07:26:09.632Z,101142.78
2023-01-13T07:28:37.293Z,101155.66
2023-01-13T07:31:05.326Z,101165.78
2023-01-13T07:33:34.772Z,101154.50
2023-01-13T07:36:04.263Z,101160.56
2023-01-13T07:38:33.062Z,101162.25
2023-01-13T07:41:22.927Z,101165.63
2023-01-13T07:43:51.385Z,101155.97
2023-01-13T07:46:19.030Z,101157.44
2023-01-13T07:48:47.244Z,101160.72
2023-01-13T07:51:14.241Z,101162.34
2023-01-13T07:53:40.900Z,101152.06
2023-01-13T07:56:08.151Z,101152.91
2023-01-13T07:58:36.723Z,101155.34
2023-01-13T08:01:12.317Z,101147.38
2023-01-13T08:03:40.731Z,101154.12
2023-01-13T08:06:08.320Z,101159.19
2023-01-13T08:08:35.411Z,101153.97
2023-01-13T08:11:03.584Z,101142.84
2023-01-13T08:13:30.293Z,101155.53
2023-01-13T08:16:03.282Z,101135.88
2023-01-13T08:18:32.101Z,101145.69
2023-01-13T08:21:03.704Z,101143.84
2023-01-13T08:23:30.961Z,101149.91
2023-01-13T08:26:03.119Z,101144.63
2023-01-13T08:28:31.292Z,101146.22
2023-01-13T08:31:03.398Z,101139.22
2023-01-13T08:33:31.083Z,101144.63
2023-01-13T08:35:58.477Z,101094.97
2023-01-13T08:38:25.682Z,101126.19
2023-01-13T08:40:53.005Z,101137.78
2023-01-13T08:43:19.778Z,101136.03
2023-01-13T08:45:46.501Z,101135.88
2023-01-13T08:48:13.529Z,101130.41
2023-01-13T08:50:40.128Z,101127.72
2023-01-13T08:53:06.700Z,101130.09
2023-01-13T08:55:33.599Z,101126.41
2023-01-13T08:58:14.735Z,101128.00
2023-01-13T09:00:42.928Z,101125.37
2023-01-13T09:03:09.728Z,101132.31
2023-01-13T09:05:36.563Z,101130.44
2023-01-13T09:08:03.491Z,101132.72
2023-01-13T09:10:30.246Z,101110.41
2023-01-13T09:13:11.975Z,101136.81
2023-01-13T09:15:45.186Z,101099.19
2023-01-13T09:18:12.661Z,101106.03
2023-01-13T09:20:39.900Z,101118.75
2023-01-13T09:23:10.038Z,101122.00
2023-01-13T09:25:37.402Z,101112.31
2023-01-13T09:28:08.625Z,101109.84
2023-01-13T09:30:36.579Z,101121.41
2023-01-13T09:33:21.837Z,101104.31
2023-01-13T09:35:48.744Z,101118.66
2023-01-13T09:38:15.384Z,101116.88
2023-01-13T09:40:43.779Z,101099.75
2023-01-13T09:43:44.673Z,101111.41
2023-01-13T09:46:37.530Z,101107.00
2023-01-13T09:49:04.886Z,101100.84
2023-01-13T09:51:37.722Z,101104.87
2023-01-13T09:54:22.229Z,101106.75
2023-01-13T09:56:48.902Z,101107.50
2023-01-13T09:59:16.367Z,101103.97
2023-01-13T10:01:54.863Z,101095.38
2023-01-13T10:04:22.167Z,101094.59
2023-01-13T10:06:56.293Z,101090.31
2023-01-13T13:34:13.076Z,101052.50
2023-01-13T13:37:01.380Z,101052.50
2023-01-13T13:39:49.402Z,101061.59
2023-01-13T13:42:39.912Z,101056.63
2023-01-13T13:45:45.252Z,101063.03
2023-01-13T13:48:30.723Z,101058.03
2023-01-13T13:51:16.708Z,101057.31
2023-01-13T13:53:43.623Z,101061.00
2023-01-13T13:56:20.880Z,101051.66
2023-01-13T13:58:49.455Z,101056.81
2023-01-13T14:01:26.921Z,101069.97
2023-01-13T14:04:14.308Z,101071.03
2023-01-13T14:07:21.110Z,101068.50
2023-01-13T14:09:51.163Z,101065.16
2023-01-13T14:12:24.452Z,101066.16
2023-01-13T14:14:52.245Z,101056.72
2023-01-13T14:17:26.849Z,101047.34
2023-01-13T14:19:59.864Z,101050.03
2023-01-13T14:22:27.022Z,101056.12
2023-01-13T14:24:58.090Z,101058.66
2023-01-13T14:27:30.232Z,101053.44
2023-01-13T14:30:00.159Z,101053.34
2023-01-13T14:32:36.720Z,101056.72
2023-01-13T14:35:07.640Z,101059.22
2023-01-13T14:37:40.245Z,101053.91
2023-01-13T14:40:33.190Z,101046.69
2023-01-13T14:43:00.858Z,101056.63
2023-01-13T14:45:27.970Z,101061.84
2023-01-13T14:47:55.058Z,101031.16
2023-01-13T14:50:29.469Z,101048.94
2023-01-13T14:52:57.398Z,101044.66
2023-01-13T14:55:28.735Z,101048.03
2023-01-13T14:58:20.223Z,101046.34
2023-01-13T15:00:47.520Z,101046.25
2023-01-13T15:03:16.026Z,101032.78
2023-01-13T15:05:47.776Z,101035.16
2023-01-13T15:08:14.650Z,101051.31
2023-01-13T15:10:54.900Z,101046.00
2023-01-13T15:13:40.981Z,101043.47
2023-01-13T15:16:24.922Z,101028.12
2023-01-13T15:18:53.605Z,101033.84
2023-01-13T15:21:20.800Z,101039.09
2023-01-13T15:23:47.507Z,101034.81
2023-01-13T15:26:26.631Z,101031.19
2023-01-13T15:28:56.118Z,101034.63
2023-01-13T15:31:24.808Z,101035.56
2023-01-13T15:33:51.587Z,101002.69
2023-01-13T15:36:32.530Z,101031.25
2023-01-13T15:39:00.717Z,101037.41
2023-01-13T15:41:46.493Z,101036.56
2023-01-13T15:44:34.398Z,101026.97
2023-01-13T15:47:05.050Z,101028.62
2023-01-13T15:49:42.226Z,101015.16
2023-01-13T15:52:25.271Z,101036.41
2023-01-13T15:54:53.955Z,101037.25
2023-01-13T15:57:30.884Z,101044.16
2023-01-13T16:00:01.037Z,101016.87
2023-01-13T16:02:29.296Z,101041.56
2023-01-13T16:04:56.448Z,101031.25
2023-01-13T16:07:25.060Z,101027.13
2023-01-13T16:09:52.532Z,101030.66
2023-01-13T16:12:20.092Z,101032.28
2023-01-13T16:14:46.865Z,101033.94
2023-01-13T16:17:19.994Z,101022.00
2023-01-13T16:19:47.336Z,101035.72
2023-01-13T16:22:15.573Z,101027.06
2023-01-13T16:24:42.719Z,101012.72
2023-01-13T16:27:18.797Z,101030.59
2023-01-13T16:29:46.872Z,101007.75
2023-01-13T16:32:14.659Z,101025.44
2023-01-13T16:34:41.433Z,101013.88
2023-01-13T16:37:27.247Z,101021.38
2023-01-13T16:39:54.755Z,101029.13
2023-01-13T16:42:21.693Z,101023.25
2023-01-13T16:44:49.707Z,101038.94
2023-01-13T16:47:18.762Z,101033.69
2023-01-13T16:49:46.353Z,101032.88
2023-01-13T16:52:13.094Z,101033.87
2023-01-13T16:54:40.097Z,101031.34
2023-01-13T16:57:07.855Z,101036.56
2023-01-13T16:59:34.751Z,101030.50
2023-01-13T17:02:02.181Z,101035.72
2023-01-13T17:04:28.963Z,101032.41
2023-01-13T17:07:03.455Z,101031.59
2023-01-13T17:09:31.097Z,101028.12
2023-01-13T17:11:57.871Z,101034.19
2023-01-13T17:14:25.566Z,101024.00
2023-01-13T17:16:59.583Z,101020.37
2023-01-13T17:19:26.424Z,101026.44
2023-01-13T17:21:53.490Z,101022.91
2023-01-13T17:24:21.141Z,101030.72
2023-01-13T17:26:50.634Z,101024.84
2023-01-13T17:29:23.194Z,101031.50
2023-01-13T17:31:51.089Z,101017.84
2023-01-13T17:34:19.170Z,101034.88
2023-01-13T17:36:45.807Z,101027.97
2023-01-13T17:39:20.701Z,101034.03
2023-01-13T17:41:47.989Z,101041.03
2023-01-13T17:44:16.250Z,101035.03
2023-01-13T17:46:43.269Z,101037.66
2023-01-13T17:49:14.974Z,101036.03
2023-01-13T17:51:41.706Z,101040.44
2023-01-13T17:54:12.369Z,101038.66
2023-01-13T17:56:40.163Z,101040.25
2023-01-13T17:59:08.951Z,101033.66
2023-01-13T18:01:36.873Z,101024.69
2023-01-13T18:04:04.127Z,101033.13
2023-01-13T18:06:32.558Z,101025.28
2023-01-13T18:09:00.140Z,101017.53
2023-01-13T18:11:27.529Z,101023.75
2023-01-13T18:13:57.096Z,101009.25
2023-01-13T18:16:25.335Z,101013.72
2023-01-13T18:19:15.226Z,101012.87
2023-01-13T18:22:01.160Z,101008.50
2023-01-13T18:24:46.597Z,100994.25
2023-01-13T18:27:23.957Z,101005.97
2023-01-13T18:29:55.939Z,101011.88
2023-01-13T18:32:24.658Z,101017.84
2023-01-13T18:35:01.625Z,100993.94
2023-01-13T18:37:32.851Z,101014.31
2023-01-13T18:39:59.769Z,100982.56
2023-01-13T18:42:45.001Z,100990.41
2023-01-13T18:45:11.944Z,101002.16
2023-01-13T18:47:40.842Z,100989.03
2023-01-13T18:50:08.898Z,100998.22
2023-01-13T18:52:36.129Z,101006.91
2023-01-13T18:55:02.940Z,101008.75
2023-01-13T18:57:29.759Z,100994.25
2023-01-13T18:59:57.661Z,101004.13
2023-01-13T19:02:26.433Z,101000.69
2023-01-13T19:04:53.904Z,101001.69
2023-01-13T19:07:27.374Z,101016.34
2023-01-13T19:09:59.402Z,101015.47
2023-01-13T19:12:27.932Z,101012.94
2023-01-13T19:14:58.831Z,101017.34
2023-01-13T19:17:27.389Z,101022.56
2023-01-13T19:19:56.016Z,101000.31
2023-01-13T19:22:27.348Z,101023.41
2023-01-13T19:24:54.607Z,101024.19
2023-01-13T19:27:22.086Z,101023.41
2023-01-13T19:29:52.319Z,101019.13
2023-01-13T19:32:22.007Z,101033.84
2023-01-13T19:34:51.015Z,101014.81
2023-01-13T19:37:18.809Z,101026.78
2023-01-13T19:39:45.811Z,101030.97
2023-01-13T19:42:31.823Z,101018.41
2023-01-13T19:45:17.323Z,101034.38
2023-01-13T19:47:45.589Z,101028.28
2023-01-13T19:50:14.029Z,101007.91
2023-01-13T19:52:42.324Z,101008.75
2023-01-13T19:55:11.782Z,101023.16
2023-01-13T19:57:40.343Z,101025.84
2023-01-13T20:00:09.902Z,101002.84
2023-01-13T20:02:44.865Z,101002.84
2023-01-13T20:05:17.931Z,101018.88
2023-01-13T20:07:44.767Z,101014.56
2023-01-13T20:10:13.189Z,101016.34
2023-01-13T20:12:41.713Z,101013.81
2023-01-13T20:15:09.406Z,101029.31
2023-01-13T20:17:36.098Z,101018.88
2023-01-13T20:20:04.102Z,101018.78
2023-01-13T20:22:30.766Z,101019.69
2023-01-13T20:24:57.450Z,101023.16
2023-01-13T20:27:24.345Z,101006.31
2023-01-13T20:29:51.438Z,100997.03
2023-01-13T20:32:18.139Z,101017.34
2023-01-13T20:34:45.133Z,101022.22
2023-01-13T20:37:11.787Z,101001.00
2023-01-13T20:39:40.157Z,101021.22
2023-01-13T20:42:25.879Z,101022.91
2023-01-13T20:44:52.561Z,101017.66
2023-01-13T20:47:19.480Z,101029.81
2023-01-13T20:49:46.207Z,101029.81
2023-01-13T20:52:12.887Z,101021.22
2023-01-13T20:54:40.996Z,101027.19
2023-01-13T20:57:10.069Z,101027.19
2023-01-13T20:59:38.121Z,101037.91
2023-01-13T21:02:07.505Z,101030.91
2023-01-13T21:04:34.260Z,101030.97
2023-01-13T21:07:01.004Z,101022.56
2023-01-13T21:09:27.922Z,101015.91
2023-01-13T21:12:13.285Z,101024.00
2023-01-13T21:14:58.949Z,101030.97
2023-01-13T21:17:44.825Z,101017.50
2023-01-13T21:20:13.456Z,101024.09
2023-01-13T21:22:43.992Z,101023.06
2023-01-13T21:25:12.584Z,101026.63
2023-01-13T21:27:39.837Z,101010.59
2023-01-13T21:30:08.099Z,101019.63
2023-01-13T21:32:35.053Z,101012.28
2023-01-13T21:35:02.140Z,101021.31
2023-01-13T21:37:28.831Z,101018.62
2023-01-13T21:39:55.784Z,101006.41
2023-01-13T21:42:41.010Z,101016.84
2023-01-13T21:45:29.058Z,101016.75
2023-01-13T21:47:55.986Z,101015.84
2023-01-13T21:50:25.990Z,101023.69
2023-01-13T21:52:52.963Z,101023.69
2023-01-13T21:55:25.679Z,101026.28
2023-01-13T21:58:03.627Z,101023.69
2023-01-13T22:00:33.084Z,101037.47
2023-01-13T22:03:03.072Z,101031.34
2023-01-13T22:05:29.851Z,101023.69
2023-01-13T22:07:56.563Z,101016.91
2023-01-13T22:10:26.396Z,101030.59
2023-01-13T22:12:54.756Z,101029.66
2023-01-13T22:15:25.360Z,101029.56
2023-01-13T22:17:53.674Z,101025.78
2023-01-13T22:20:22.754Z,101024.88
2023-01-13T22:22:49.923Z,101015.25
2023-01-13T22:25:20.016Z,101014.34
2023-01-13T22:27:48.315Z,101006.84
2023-01-13T22:30:18.353Z,101016.87
2023-01-13T22:32:46.153Z,101016.87
2023-01-13T22:35:15.308Z,101015.16
2023-01-13T22:37:42.804Z,101017.69
2023-01-13T22:40:11.791Z,101024.59
2023-01-13T22:42:39.771Z,101015.16
2023-01-13T22:45:10.262Z,101011.81
2023-01-13T22:47:37.391Z,101010.94
2023-01-13T22:50:05.231Z,101007.50
2023-01-13T22:52:33.446Z,101004.72
2023-01-13T22:55:00.924Z,101002.09
2023-01-13T22:57:36.154Z,100994.44
2023-01-13T23:00:10.477Z,100995.19
2023-01-13T23:02:38.274Z,101003.97
2023-01-13T23:05:05.281Z,100999.66
2023-01-13T23:07:32.189Z,100982.81
2023-01-13T23:09:58.846Z,100998.12
2023-01-13T23:12:25.509Z,101007.59
2023-01-13T23:14:52.710Z,101007.50
2023-01-13T23:17:19.433Z,101003.19
2023-01-13T23:19:46.070Z,100993.69
2023-01-13T23:22:13.539Z,100992.00
2023-01-13T23:24:40.194Z,100999.09
2023-01-13T23:27:06.965Z,101000.66
2023-01-13T23:29:33.895Z,100995.44
2023-01-13T23:32:00.731Z,100986.69
2023-01-13T23:34:27.858Z,100971.53
2023-01-13T23:36:54.780Z,100995.28
2023-01-13T23:39:21.431Z,100986.59
2023-01-13T23:41:48.106Z,100994.34
2023-01-13T23:44:15.128Z,100987.34
2023-01-13T23:46:42.114Z,100978.69
2023-01-13T23:49:08.823Z,100975.41
2023-01-13T23:51:35.817Z,100983.25
2023-01-13T23:54:02.493Z,100973.63
2023-01-13T23:56:31.363Z,100962.84
2023-01-13T23:58:58.945Z,100984.75
